createdAt,value
2022-11-05T00:00:58.095Z,0
2022-11-05T00:01:58.070Z,0
2022-11-05T00:02:57.845Z,0
2022-11-05T00:03:57.783Z,0
2022-11-05T00:04:57.741Z,0
2022-11-05T00:05:58.105Z,0
2022-11-05T00:06:57.764Z,0
2022-11-05T00:07:57.767Z,0
2022-11-05T00:08:57.757Z,0
2022-11-05T00:10:00.783Z,0
2022-11-05T00:10:58.014Z,0
2022-11-05T00:11:57.727Z,0
2022-11-05T00:12:57.668Z,0
2022-11-05T00:13:57.660Z,0
2022-11-05T00:14:57.757Z,0
2022-11-05T00:15:58.019Z,0
2022-11-05T00:16:58.089Z,0
2022-11-05T00:17:58.103Z,0
2022-11-05T00:18:57.737Z,0
2022-11-05T00:19:57.808Z,0
2022-11-05T00:21:03.787Z,0
2022-11-05T00:21:57.731Z,0
2022-11-05T00:22:57.798Z,0
2022-11-05T00:23:57.857Z,0
2022-11-05T00:24:57.873Z,0
2022-11-05T00:25:58.025Z,0
2022-11-05T00:26:57.767Z,0
2022-11-05T00:27:57.669Z,0
2022-11-05T00:28:57.668Z,0
2022-11-05T00:29:57.829Z,0
2022-11-05T00:30:58.093Z,0
2022-11-05T00:32:03.713Z,0
2022-11-05T00:32:57.875Z,0
2022-11-05T00:33:57.763Z,0
2022-11-05T00:34:57.797Z,0
2022-11-05T00:35:58.016Z,0
2022-11-05T00:36:57.726Z,0
2022-11-05T00:37:57.674Z,0
2022-11-05T00:38:57.664Z,0
2022-11-05T00:39:57.669Z,0
2022-11-05T00:40:58.098Z,0
2022-11-05T00:41:57.762Z,0
2022-11-05T00:43:00.667Z,0
2022-11-05T00:43:57.860Z,0
2022-11-05T00:44:57.813Z,0
2022-11-05T00:45:58.092Z,0
2022-11-05T00:46:59.969Z,0
2022-11-05T00:47:57.822Z,0
2022-11-05T00:48:57.662Z,0
2022-11-05T00:49:57.647Z,0
2022-11-05T00:50:58.141Z,0
2022-11-05T00:51:57.817Z,0
2022-11-05T00:52:58.091Z,0
2022-11-05T00:54:00.657Z,0
2022-11-05T00:54:57.781Z,0
2022-11-05T00:55:58.312Z,0
2022-11-05T00:57:03.447Z,0
2022-11-05T00:57:57.666Z,0
2022-11-05T00:58:57.663Z,0
2022-11-05T00:59:57.683Z,0
2022-11-05T01:00:58.101Z,0
2022-11-05T01:01:58.232Z,0
2022-11-05T01:02:57.882Z,0
2022-11-05T01:03:57.784Z,0
2022-11-05T01:05:00.721Z,0
2022-11-05T01:05:58.030Z,0
2022-11-05T01:06:57.867Z,0
2022-11-05T01:07:57.827Z,0
2022-11-05T01:08:57.776Z,0
2022-11-05T01:09:57.856Z,0
2022-11-05T01:10:58.016Z,0
2022-11-05T01:11:57.676Z,0
2022-11-05T01:12:57.779Z,0
2022-11-05T01:13:57.749Z,0
2022-11-05T01:14:57.799Z,0
2022-11-05T01:16:03.678Z,0
2022-11-05T01:16:58.026Z,0
2022-11-05T01:17:57.853Z,0
2022-11-05T01:18:57.841Z,0
2022-11-05T01:19:57.785Z,0
2022-11-05T01:20:58.018Z,0
2022-11-05T01:21:57.645Z,0
2022-11-05T01:22:57.651Z,0
2022-11-05T01:23:57.660Z,0
2022-11-05T01:24:57.751Z,0
2022-11-05T01:25:57.757Z,0
2022-11-05T01:27:00.772Z,0
2022-11-05T01:27:57.797Z,0
2022-11-05T01:28:57.873Z,0
2022-11-05T01:29:57.844Z,0
2022-11-05T01:30:58.025Z,0
2022-11-05T01:31:58.028Z,0
2022-11-05T01:32:57.654Z,0
2022-11-05T01:33:57.779Z,0
2022-11-05T01:34:57.741Z,0
2022-11-05T01:35:57.791Z,0
2022-11-05T01:36:57.875Z,0
2022-11-05T01:38:00.732Z,0
2022-11-05T01:38:57.752Z,0
2022-11-05T01:39:57.684Z,0
2022-11-05T01:40:58.091Z,0
2022-11-05T01:41:57.802Z,0
2022-11-05T01:42:57.667Z,0
2022-11-05T01:43:57.653Z,0
2022-11-05T01:44:57.640Z,0
2022-11-05T01:45:58.088Z,0
2022-11-05T01:46:58.016Z,0
2022-11-05T01:47:57.711Z,0
2022-11-05T01:49:03.276Z,0
2022-11-05T01:49:57.758Z,0
2022-11-05T01:50:58.094Z,0
2022-11-05T01:51:57.745Z,0
2022-11-05T01:52:57.667Z,0
2022-11-05T01:53:57.685Z,0
2022-11-05T01:54:57.797Z,0
2022-11-05T01:55:58.221Z,0
2022-11-05T01:56:57.840Z,0
2022-11-05T01:57:57.788Z,0
2022-11-05T01:58:57.723Z,0
2022-11-05T02:00:00.787Z,0
2022-11-05T02:00:58.023Z,0
2022-11-05T02:01:58.155Z,0
2022-11-05T02:02:57.828Z,0
2022-11-05T02:03:57.753Z,0
2022-11-05T02:04:57.663Z,0
2022-11-05T02:05:58.063Z,0
2022-11-05T02:06:57.644Z,0
2022-11-05T02:07:57.666Z,0
2022-11-05T02:08:57.646Z,0
2022-11-05T02:09:57.666Z,0
2022-11-05T02:11:03.761Z,0
2022-11-05T02:11:57.830Z,0
2022-11-05T02:12:57.701Z,0
2022-11-05T02:13:57.816Z,0
2022-11-05T02:14:57.828Z,0
2022-11-05T02:15:58.139Z,0
2022-11-05T02:16:58.024Z,0
2022-11-05T02:17:57.681Z,0
2022-11-05T02:18:57.651Z,0
2022-11-05T02:19:57.643Z,0
2022-11-05T02:20:58.216Z,0
2022-11-05T02:22:00.787Z,0
2022-11-05T02:22:57.865Z,0
2022-11-05T02:23:57.776Z,0
2022-11-05T02:24:57.796Z,0
2022-11-05T02:25:58.013Z,0
2022-11-05T02:26:57.739Z,0
2022-11-05T02:27:57.819Z,0
2022-11-05T02:28:57.662Z,0
2022-11-05T02:29:57.670Z,0
2022-11-05T02:30:57.800Z,0
2022-11-05T02:31:58.070Z,0
2022-11-05T02:33:00.661Z,0
2022-11-05T02:33:57.715Z,0
2022-11-05T02:34:57.727Z,0
2022-11-05T02:35:58.091Z,0
2022-11-05T02:36:57.746Z,0
2022-11-05T02:37:57.751Z,0
2022-11-05T02:38:57.772Z,0
2022-11-05T02:39:57.671Z,0
2022-11-05T02:40:58.130Z,0
2022-11-05T02:42:03.497Z,0
2022-11-05T02:42:57.770Z,0
2022-11-05T02:44:00.815Z,0
2022-11-05T02:44:57.774Z,0
2022-11-05T02:45:58.094Z,0
2022-11-05T02:46:58.030Z,0
2022-11-05T02:47:57.813Z,0
2022-11-05T02:48:57.728Z,0
2022-11-05T02:49:57.645Z,0
2022-11-05T02:50:58.090Z,0
2022-11-05T02:51:57.818Z,0
2022-11-05T02:52:57.648Z,0
2022-11-05T02:53:57.667Z,0
2022-11-05T02:55:00.806Z,0
2022-11-05T02:55:58.015Z,0
2022-11-05T02:56:57.853Z,0
2022-11-05T02:57:57.866Z,0
2022-11-05T02:58:57.844Z,0
2022-11-05T02:59:57.744Z,0
2022-11-05T03:00:58.019Z,0
2022-11-05T03:01:58.039Z,0
2022-11-05T03:02:57.906Z,0
2022-11-05T03:03:57.859Z,0
2022-11-05T03:04:57.854Z,0
2022-11-05T03:06:03.685Z,0
2022-11-05T03:06:57.763Z,0
2022-11-05T03:07:57.795Z,0
2022-11-05T03:08:57.843Z,0
2022-11-05T03:09:57.808Z,0
2022-11-05T03:10:58.027Z,0
2022-11-05T03:11:57.748Z,0
2022-11-05T03:12:57.681Z,0
2022-11-05T03:13:57.763Z,0
2022-11-05T03:14:57.832Z,0
2022-11-05T03:15:58.098Z,0
2022-11-05T03:17:00.780Z,0
2022-11-05T03:17:57.877Z,0
2022-11-05T03:18:57.735Z,0
2022-11-05T03:19:57.700Z,0
2022-11-05T03:20:58.127Z,0
2022-11-05T03:21:57.757Z,0
2022-11-05T03:22:57.655Z,0
2022-11-05T03:23:57.651Z,0
2022-11-05T03:24:57.656Z,0
2022-11-05T03:25:58.091Z,0
2022-11-05T03:26:57.874Z,0
2022-11-05T03:28:00.804Z,0
2022-11-05T03:28:57.832Z,0
2022-11-05T03:29:57.735Z,0
2022-11-05T03:30:58.103Z,0
2022-11-05T03:31:57.794Z,0
2022-11-05T03:32:57.775Z,0
2022-11-05T03:33:57.639Z,0
2022-11-05T03:34:57.677Z,0
2022-11-05T03:35:58.100Z,0
2022-11-05T03:36:57.882Z,0
2022-11-05T03:37:57.745Z,0
2022-11-05T03:39:00.692Z,0
2022-11-05T03:39:57.836Z,0
2022-11-05T03:40:58.275Z,0
2022-11-05T03:41:57.709Z,0
2022-11-05T03:42:57.669Z,0
2022-11-05T03:43:57.693Z,0
2022-11-05T03:44:57.663Z,0
2022-11-05T03:45:58.095Z,0
2022-11-05T03:46:58.024Z,0
2022-11-05T03:47:57.723Z,0
2022-11-05T03:48:57.748Z,0
2022-11-05T03:50:00.775Z,0
2022-11-05T03:50:58.013Z,0
2022-11-05T03:51:57.771Z,0
2022-11-05T03:52:57.631Z,0
2022-11-05T03:53:57.640Z,0
2022-11-05T03:54:57.645Z,0
2022-11-05T03:55:59.247Z,0
2022-11-05T03:56:57.743Z,0
2022-11-05T03:57:57.750Z,0
2022-11-05T03:58:59.276Z,0
2022-11-05T03:59:57.849Z,0
2022-11-05T04:01:03.727Z,0
2022-11-05T04:01:58.119Z,0
2022-11-05T04:02:57.865Z,0
2022-11-05T04:03:57.866Z,0
2022-11-05T04:04:57.711Z,0
2022-11-05T04:05:58.204Z,0
2022-11-05T04:06:57.674Z,0
2022-11-05T04:07:57.724Z,0
2022-11-05T04:08:57.667Z,0
2022-11-05T04:09:57.678Z,0
2022-11-05T04:10:58.086Z,0
2022-11-05T04:12:01.017Z,0
2022-11-05T04:12:57.765Z,0
2022-11-05T04:13:57.770Z,0
2022-11-05T04:14:57.837Z,0
2022-11-05T04:15:58.066Z,0
2022-11-05T04:16:58.021Z,0
2022-11-05T04:17:57.689Z,0
2022-11-05T04:18:57.649Z,0
2022-11-05T04:19:57.805Z,0
2022-11-05T04:20:58.065Z,0
2022-11-05T04:21:57.794Z,0
2022-11-05T04:23:00.740Z,0
2022-11-05T04:23:57.862Z,0
2022-11-05T04:24:57.771Z,0
2022-11-05T04:25:58.128Z,0
2022-11-05T04:26:57.823Z,0
2022-11-05T04:27:57.650Z,0
2022-11-05T04:28:57.787Z,0
2022-11-05T04:29:57.644Z,0
2022-11-05T04:30:58.091Z,0
2022-11-05T04:31:58.018Z,0
2022-11-05T04:32:57.727Z,0
2022-11-05T04:34:00.679Z,0
2022-11-05T04:34:57.749Z,0
2022-11-05T04:35:58.097Z,0
2022-11-05T04:36:57.843Z,0
2022-11-05T04:37:57.813Z,0
2022-11-05T04:38:57.830Z,0
2022-11-05T04:39:57.748Z,0
2022-11-05T04:40:58.202Z,0
2022-11-05T04:41:57.737Z,0
2022-11-05T04:42:57.766Z,0
2022-11-05T04:43:57.874Z,0
2022-11-05T04:45:00.671Z,0
2022-11-05T04:45:58.015Z,0
2022-11-05T04:46:58.026Z,0
2022-11-05T04:47:57.852Z,0
2022-11-05T04:48:58.256Z,0
2022-11-05T04:49:57.840Z,0
2022-11-05T04:50:58.024Z,0
2022-11-05T04:51:57.655Z,0
2022-11-05T04:52:57.660Z,0
2022-11-05T04:53:57.652Z,0
2022-11-05T04:54:57.665Z,0
2022-11-05T04:56:00.809Z,0
2022-11-05T04:56:57.825Z,0
2022-11-05T04:57:57.665Z,0
2022-11-05T04:58:57.710Z,0
2022-11-05T04:59:57.754Z,0
2022-11-05T05:00:58.203Z,0
2022-11-05T05:01:58.103Z,0
2022-11-05T05:02:57.764Z,0
2022-11-05T05:03:57.753Z,0
2022-11-05T05:04:57.766Z,0
2022-11-05T05:06:03.374Z,0
2022-11-05T05:07:00.819Z,0
2022-11-05T05:07:57.816Z,0
2022-11-05T05:08:57.757Z,0
2022-11-05T05:09:57.656Z,0
2022-11-05T05:10:58.290Z,0
2022-11-05T05:11:57.818Z,0
2022-11-05T05:12:57.654Z,0
2022-11-05T05:13:57.725Z,0
2022-11-05T05:14:57.737Z,0
2022-11-05T05:15:58.019Z,0
2022-11-05T05:16:57.768Z,0
2022-11-05T05:18:00.683Z,0
2022-11-05T05:18:57.756Z,0
2022-11-05T05:19:57.789Z,0
2022-11-05T05:20:58.022Z,0
2022-11-05T05:21:57.833Z,0
2022-11-05T05:22:57.752Z,0
2022-11-05T05:23:57.767Z,0
2022-11-05T05:24:57.780Z,0
2022-11-05T05:25:57.669Z,0
2022-11-05T05:26:57.768Z,0
2022-11-05T05:27:57.839Z,0
2022-11-05T05:29:00.763Z,0
2022-11-05T05:29:57.833Z,0
2022-11-05T05:30:58.881Z,0
2022-11-05T05:31:58.025Z,0
2022-11-05T05:32:57.830Z,0
2022-11-05T05:33:57.756Z,0
2022-11-05T05:34:57.667Z,0
2022-11-05T05:35:58.093Z,0
2022-11-05T05:36:57.717Z,0
2022-11-05T05:37:57.644Z,0
2022-11-05T05:38:57.691Z,0
2022-11-05T05:40:00.697Z,0
2022-11-05T05:40:58.030Z,0
2022-11-05T05:41:57.751Z,0
2022-11-05T05:42:57.773Z,0
2022-11-05T05:43:57.786Z,0
2022-11-05T05:44:57.768Z,0
2022-11-05T05:45:58.057Z,0
2022-11-05T05:46:58.091Z,0
2022-11-05T05:47:57.859Z,0
2022-11-05T05:48:57.808Z,0
2022-11-05T05:49:57.844Z,0
2022-11-05T05:51:03.747Z,0
2022-11-05T05:51:57.750Z,0
2022-11-05T05:52:57.660Z,0
2022-11-05T05:53:57.758Z,0
2022-11-05T05:54:57.779Z,0
2022-11-05T05:55:58.019Z,0
2022-11-05T05:56:57.658Z,0
2022-11-05T05:57:57.657Z,0
2022-11-05T05:58:57.669Z,0
2022-11-05T05:59:57.663Z,0
2022-11-05T06:00:57.843Z,0
2022-11-05T06:02:03.870Z,0
2022-11-05T06:02:57.891Z,0
2022-11-05T06:03:57.756Z,0
2022-11-05T06:04:57.736Z,0
2022-11-05T06:05:58.097Z,0
2022-11-05T06:06:57.845Z,0
2022-11-05T06:07:57.674Z,0
2022-11-05T06:08:57.790Z,0
2022-11-05T06:09:57.749Z,0
2022-11-05T06:10:58.144Z,0
2022-11-05T06:11:57.728Z,0
2022-11-05T06:13:00.818Z,0
2022-11-05T06:13:57.793Z,0
2022-11-05T06:14:57.691Z,0
2022-11-05T06:15:58.144Z,0
2022-11-05T06:16:58.015Z,0
2022-11-05T06:17:57.846Z,0
2022-11-05T06:18:57.662Z,0
2022-11-05T06:19:57.801Z,0
2022-11-05T06:20:58.056Z,0
2022-11-05T06:21:57.760Z,0
2022-11-05T06:22:57.720Z,0
2022-11-05T06:24:00.816Z,0
2022-11-05T06:24:57.855Z,0
2022-11-05T06:25:57.664Z,0
2022-11-05T06:26:57.644Z,0
2022-11-05T06:27:57.661Z,0
2022-11-05T06:28:57.793Z,0
2022-11-05T06:29:57.642Z,0
2022-11-05T06:30:58.095Z,0
2022-11-05T06:31:57.673Z,0
2022-11-05T06:32:57.660Z,0
2022-11-05T06:33:57.751Z,0
2022-11-05T06:35:00.665Z,0
2022-11-05T06:35:58.022Z,0
2022-11-05T06:36:57.821Z,0
2022-11-05T06:37:57.762Z,0
2022-11-05T06:38:57.878Z,0
2022-11-05T06:39:57.667Z,0
2022-11-05T06:40:58.068Z,0
2022-11-05T06:42:17.192Z,0
2022-11-05T06:42:57.735Z,0
2022-11-05T06:43:57.659Z,0
2022-11-05T06:44:57.765Z,0
2022-11-05T06:46:03.769Z,0
2022-11-05T06:46:58.070Z,0
2022-11-05T06:47:57.734Z,0
2022-11-05T06:48:57.673Z,0
2022-11-05T06:49:57.764Z,0
2022-11-05T06:50:58.046Z,0
2022-11-05T06:51:57.650Z,0
2022-11-05T06:52:57.795Z,0
2022-11-05T06:53:57.702Z,0
2022-11-05T06:54:57.655Z,0
2022-11-05T06:55:58.141Z,0
2022-11-05T06:57:00.677Z,0
2022-11-05T06:57:57.771Z,0
2022-11-05T06:58:57.701Z,0
2022-11-05T07:00:01.491Z,0
2022-11-05T07:00:57.894Z,0
2022-11-05T07:01:57.823Z,0
2022-11-05T07:02:57.771Z,0
2022-11-05T07:03:57.774Z,0
2022-11-05T07:04:57.837Z,0
2022-11-05T07:05:58.354Z,0
2022-11-05T07:06:57.837Z,0
2022-11-05T07:08:00.704Z,0
2022-11-05T07:08:57.732Z,0
2022-11-05T07:09:57.660Z,0
2022-11-05T07:10:57.697Z,0
2022-11-05T07:11:57.638Z,0
2022-11-05T07:12:57.766Z,0
2022-11-05T07:13:58.196Z,0
2022-11-05T07:14:57.667Z,0
2022-11-05T07:15:58.139Z,0
2022-11-05T07:16:57.735Z,0
2022-11-05T07:17:57.772Z,0
2022-11-05T07:19:00.813Z,0
2022-11-05T07:19:57.843Z,0
2022-11-05T07:20:58.107Z,0
2022-11-05T07:21:57.766Z,0
2022-11-05T07:22:57.735Z,0
2022-11-05T07:23:57.665Z,0
2022-11-05T07:24:58.041Z,0
2022-11-05T07:25:57.760Z,0
2022-11-05T07:26:57.807Z,0
2022-11-05T07:27:57.858Z,0
2022-11-05T07:28:58.666Z,0
2022-11-05T07:30:03.954Z,0
2022-11-05T07:30:57.884Z,0
2022-11-05T07:31:57.754Z,0
2022-11-05T07:32:57.768Z,0
2022-11-05T07:33:57.670Z,0
2022-11-05T07:34:58.109Z,0
2022-11-05T07:35:57.660Z,0
2022-11-05T07:36:57.672Z,0
2022-11-05T07:37:57.729Z,0
2022-11-05T07:39:00.346Z,0
2022-11-05T07:39:58.145Z,0
2022-11-05T07:41:00.791Z,0
2022-11-05T07:41:57.749Z,0
2022-11-05T07:42:57.738Z,0
2022-11-05T07:43:58.112Z,0
2022-11-05T07:44:58.029Z,0
2022-11-05T07:45:57.738Z,0
2022-11-05T07:46:57.682Z,0
2022-11-05T07:47:57.780Z,0
2022-11-05T07:48:57.729Z,0
2022-11-05T07:49:58.157Z,0
2022-11-05T07:50:57.864Z,0
2022-11-05T07:52:00.771Z,0
2022-11-05T07:52:57.860Z,0
2022-11-05T07:53:57.829Z,0
2022-11-05T07:54:58.223Z,0
2022-11-05T07:55:57.730Z,0
2022-11-05T07:56:57.664Z,0
2022-11-05T07:57:57.652Z,0
2022-11-05T07:58:57.670Z,0
2022-11-05T07:59:58.103Z,0
2022-11-05T08:00:57.954Z,0
2022-11-05T08:01:57.893Z,0
2022-11-05T08:03:07.290Z,0
2022-11-05T08:03:57.812Z,0
2022-11-05T08:04:57.764Z,0
2022-11-05T08:05:57.773Z,0
2022-11-05T08:06:57.665Z,0
2022-11-05T08:07:57.887Z,0
2022-11-05T08:08:57.755Z,0
2022-11-05T08:09:58.177Z,0
2022-11-05T08:10:57.725Z,0
2022-11-05T08:12:02.638Z,0
2022-11-05T08:12:57.665Z,0
2022-11-05T08:14:00.887Z,0
2022-11-05T08:14:57.746Z,0
2022-11-05T08:15:57.663Z,0
2022-11-05T08:16:57.665Z,0
2022-11-05T08:17:57.663Z,0
2022-11-05T08:18:57.770Z,0
2022-11-05T08:19:58.036Z,0
2022-11-05T08:20:57.761Z,0
2022-11-05T08:21:57.731Z,0
2022-11-05T08:22:57.683Z,0
2022-11-05T08:23:57.801Z,0
2022-11-05T08:25:06.746Z,0
2022-11-05T08:25:57.726Z,0
2022-11-05T08:26:57.679Z,0
2022-11-05T08:27:57.734Z,0
2022-11-05T08:28:58.029Z,0
2022-11-05T08:29:58.032Z,0
2022-11-05T08:30:57.672Z,0
2022-11-05T08:31:57.661Z,0
2022-11-05T08:32:57.681Z,0
2022-11-05T08:34:02.281Z,0
2022-11-05T08:34:57.872Z,0
2022-11-05T08:36:00.766Z,84.7099609375
2022-11-05T08:36:57.786Z,83.7138671875
2022-11-05T08:37:57.647Z,80.1103515625
2022-11-05T08:38:57.782Z,76.8046875
2022-11-05T08:39:57.776Z,75.1748046875
2022-11-05T08:40:57.715Z,71.73046875
2022-11-05T08:41:57.683Z,71.2109375
2022-11-05T08:42:57.653Z,70.498046875
2022-11-05T08:43:58.144Z,70.5703125
2022-11-05T08:44:58.093Z,70.0283203125
2022-11-05T08:45:57.675Z,70.33203125
2022-11-05T08:47:00.720Z,70.7919921875
2022-11-05T08:47:57.738Z,71.0302734375
2022-11-05T08:48:57.723Z,71.6357421875
2022-11-05T08:49:58.245Z,71.6162109375
2022-11-05T08:50:57.785Z,72.310546875
2022-11-05T08:51:57.653Z,72.7509765625
2022-11-05T08:52:57.792Z,73.4677734375
2022-11-05T08:53:57.743Z,73.1337890625
2022-11-05T08:54:58.032Z,73.5869140625
2022-11-05T08:55:57.754Z,74.20703125
2022-11-05T08:56:57.663Z,74.3818359375
2022-11-05T08:58:00.664Z,74.359375
2022-11-05T08:58:57.781Z,74.0888671875
2022-11-05T08:59:58.108Z,73.986328125
2022-11-05T09:01:03.430Z,73.5400390625
2022-11-05T09:01:57.737Z,73.9541015625
2022-11-05T09:02:57.738Z,73.984375
2022-11-05T09:03:57.668Z,73.2783203125
2022-11-05T09:04:58.113Z,73.208984375
2022-11-05T09:05:57.844Z,73.2294921875
2022-11-05T09:06:57.730Z,71.708984375
2022-11-05T09:08:00.930Z,71.08203125
2022-11-05T09:09:00.732Z,71.013671875
2022-11-05T09:09:58.084Z,70.89453125
2022-11-05T09:10:57.735Z,70.7294921875
2022-11-05T09:12:11.754Z,69.7177734375
2022-11-05T09:12:57.756Z,68.744140625
2022-11-05T09:14:48.577Z,68.9140625
2022-11-05T09:16:55.459Z,68.39453125
2022-11-05T09:17:55.505Z,67.4453125
2022-11-05T09:18:55.547Z,67.7353515625
2022-11-05T09:19:55.796Z,66.5576171875
2022-11-05T09:20:55.434Z,67.10546875
2022-11-05T09:21:58.438Z,67.361328125
2022-11-05T09:22:55.522Z,67.9541015625
2022-11-05T09:23:55.437Z,67.833984375
2022-11-05T09:24:55.876Z,67.857421875
2022-11-05T09:25:55.553Z,67.2822265625
2022-11-05T09:26:55.429Z,66.705078125
2022-11-05T09:27:55.493Z,66.9111328125
2022-11-05T09:28:55.860Z,66.26953125
2022-11-05T09:29:55.787Z,66.685546875
2022-11-05T09:30:55.562Z,67.337890625
2022-11-05T09:31:55.561Z,67.3291015625
2022-11-05T09:32:58.539Z,67.4912109375
2022-11-05T09:33:55.528Z,67.5244140625
2022-11-05T09:34:55.859Z,67.86328125
2022-11-05T09:35:55.584Z,67.376953125
2022-11-05T09:36:55.628Z,67.2158203125
2022-11-05T09:38:00.646Z,67.533203125
2022-11-05T09:38:55.561Z,68.072265625
2022-11-05T09:39:55.869Z,69.5908203125
2022-11-05T09:40:55.522Z,70.0703125
2022-11-05T09:41:55.382Z,69.212890625
2022-11-05T09:42:55.414Z,69.025390625
2022-11-05T09:43:58.603Z,69.4794921875
2022-11-05T09:44:55.791Z,70.2578125
2022-11-05T09:45:55.472Z,71.138671875
2022-11-05T09:46:55.399Z,71.71875
2022-11-05T09:47:55.424Z,71.95703125
2022-11-05T09:48:55.416Z,72.037109375
2022-11-05T09:49:55.801Z,72.01953125
2022-11-05T09:50:55.547Z,72.77734375
2022-11-05T09:51:55.621Z,72.87890625
2022-11-05T09:52:55.572Z,71.818359375
2022-11-05T09:53:55.405Z,71.5908203125
2022-11-05T09:56:02.592Z,70.900390625
2022-11-05T09:57:02.551Z,70.25390625
2022-11-05T09:58:02.847Z,69.7958984375
2022-11-05T09:59:02.848Z,69.658203125
2022-11-05T10:00:02.936Z,69.759765625
2022-11-05T10:01:05.592Z,70.1416015625
2022-11-05T10:02:02.831Z,69.935546875
2022-11-05T10:03:02.645Z,69.4580078125
2022-11-05T10:04:02.546Z,69.3720703125
2022-11-05T10:05:09.104Z,69.6259765625
2022-11-05T10:06:02.457Z,68.599609375
2022-11-05T10:07:02.468Z,68.7451171875
2022-11-05T10:08:02.465Z,69.8466796875
2022-11-05T10:09:02.549Z,69.697265625
2022-11-05T10:10:02.464Z,67.603515625
2022-11-05T10:11:02.597Z,67.0361328125
2022-11-05T10:12:05.563Z,66.53125
2022-11-05T10:13:02.640Z,66.326171875
2022-11-05T10:14:02.575Z,66.3505859375
2022-11-05T10:15:02.985Z,65.3505859375
2022-11-05T10:16:02.681Z,65.0654296875
2022-11-05T10:17:02.554Z,65.4453125
2022-11-05T10:18:02.564Z,65.595703125
2022-11-05T10:19:02.478Z,65.955078125
2022-11-05T10:20:02.471Z,65.3779296875
2022-11-05T10:21:02.460Z,64.947265625
2022-11-05T10:22:07.146Z,64.78515625
2022-11-05T10:23:05.645Z,65.2607421875
2022-11-05T10:24:02.545Z,64.7607421875
2022-11-05T10:25:02.956Z,64.93359375
2022-11-05T10:26:02.565Z,64.669921875
2022-11-05T10:27:02.549Z,64.4072265625
2022-11-05T10:28:02.589Z,64.5556640625
2022-11-05T10:29:02.547Z,64.662109375
2022-11-05T10:30:02.453Z,64.998046875
2022-11-05T10:31:02.557Z,64.951171875
2022-11-05T10:32:02.647Z,65.5830078125
2022-11-05T10:33:02.573Z,65.5810546875
2022-11-05T10:34:05.534Z,65.4228515625
2022-11-05T10:35:02.515Z,65.7197265625
2022-11-05T10:36:02.441Z,65.568359375
2022-11-05T10:37:02.453Z,65.4951171875
2022-11-05T10:38:02.480Z,65.32421875
2022-11-05T10:39:02.601Z,65.4794921875
2022-11-05T10:40:02.491Z,64.85546875
2022-11-05T10:41:02.473Z,64.8701171875
2022-11-05T10:42:02.438Z,64.46484375
2022-11-05T10:43:02.603Z,64.3662109375
2022-11-05T10:44:02.630Z,64.99609375
2022-11-05T10:45:05.691Z,64.8076171875
2022-11-05T10:46:02.538Z,64.322265625
2022-11-05T10:47:02.553Z,63.2578125
2022-11-05T10:48:02.680Z,63.544921875
2022-11-05T10:49:02.548Z,63.275390625
2022-11-05T10:50:02.989Z,63.7138671875
2022-11-05T10:51:02.631Z,63.392578125
2022-11-05T10:52:02.562Z,62.2822265625
2022-11-05T10:54:09.266Z,62.6025390625
2022-11-05T10:55:09.230Z,61.720703125
2022-11-05T10:56:09.285Z,59.34375
2022-11-05T10:57:09.203Z,59.6943359375
2022-11-05T10:58:09.175Z,59.58203125
2022-11-05T10:59:12.434Z,59.302734375
2022-11-05T11:00:09.606Z,59.001953125
2022-11-05T11:01:09.358Z,58.5
2022-11-05T11:02:09.299Z,58.880859375
2022-11-05T11:03:09.619Z,59.193359375
2022-11-05T11:04:09.416Z,59.74609375
2022-11-05T11:05:09.285Z,60.541015625
2022-11-05T11:06:09.313Z,59.65625
2022-11-05T11:07:09.275Z,59.4853515625
2022-11-05T11:08:09.292Z,58.537109375
2022-11-05T11:09:09.424Z,57.607421875
2022-11-05T11:10:12.216Z,56.623046875
2022-11-05T11:11:09.399Z,55.0087890625
2022-11-05T11:12:09.384Z,54.6513671875
2022-11-05T11:13:09.486Z,54.2900390625
2022-11-05T11:14:09.281Z,53.33203125
2022-11-05T11:15:09.324Z,53.564453125
2022-11-05T11:16:09.349Z,54.1474609375
2022-11-05T11:17:09.289Z,54.2353515625
2022-11-05T11:18:09.326Z,55.0146484375
2022-11-05T11:19:09.242Z,54.5478515625
2022-11-05T11:20:09.329Z,54.9208984375
2022-11-05T11:21:12.213Z,55.4755859375
2022-11-05T11:22:09.267Z,55.4423828125
2022-11-05T11:23:09.482Z,55.28125
2022-11-05T11:24:09.184Z,55.1826171875
2022-11-05T11:25:09.271Z,55.8076171875
2022-11-05T11:26:09.191Z,55.048828125
2022-11-05T11:27:46.307Z,53.8427734375
2022-11-05T11:28:46.227Z,53.634765625
2022-11-05T11:29:49.375Z,53.4873046875
2022-11-05T11:30:46.691Z,53.046875
2022-11-05T11:31:46.457Z,52.3359375
2022-11-05T11:32:49.448Z,50.357421875
2022-11-05T11:33:46.342Z,50.0478515625
2022-11-05T11:34:46.821Z,49.3388671875
2022-11-05T11:35:46.445Z,48.62109375
2022-11-05T11:36:46.318Z,47.5341796875
2022-11-05T11:37:46.391Z,47.16015625
2022-11-05T11:38:46.365Z,45.5087890625
2022-11-05T11:39:46.332Z,44.177734375
2022-11-05T11:40:46.676Z,42.443359375
2022-11-05T11:41:46.330Z,41.1435546875
2022-11-05T11:42:47.190Z,39.763671875
2022-11-05T11:43:49.382Z,40.466796875
2022-11-05T11:44:46.317Z,41.306640625
2022-11-05T11:45:46.260Z,43.83984375
2022-11-05T11:46:46.247Z,46.1875
2022-11-05T11:47:46.240Z,47.6875
2022-11-05T11:48:46.278Z,48.9140625
2022-11-05T11:49:46.341Z,49.7373046875
2022-11-05T11:50:46.333Z,50.2197265625
2022-11-05T11:51:49.977Z,50.3935546875
2022-11-05T11:52:46.371Z,50.40234375
2022-11-05T11:53:46.328Z,51.3486328125
2022-11-05T11:54:49.276Z,51.361328125
2022-11-05T11:55:46.734Z,51.8193359375
2022-11-05T11:56:46.449Z,52.0830078125
2022-11-05T11:57:46.418Z,52.5595703125
2022-11-05T11:58:46.333Z,53.0849609375
2022-11-05T12:00:07.690Z,53.0419921875
2022-11-05T12:00:46.347Z,53.375
2022-11-05T12:01:46.761Z,52.8876953125
2022-11-05T12:02:46.443Z,53.2158203125
2022-11-05T12:03:46.357Z,53.7060546875
2022-11-05T12:04:46.313Z,54.02734375
2022-11-05T12:05:52.310Z,54.2802734375
2022-11-05T12:06:46.331Z,54.9521484375
2022-11-05T12:07:46.320Z,54.5986328125
2022-11-05T12:08:49.379Z,55.119140625
2022-11-05T12:09:46.253Z,54.4873046875
2022-11-05T12:10:46.356Z,54.2412109375
2022-11-05T12:11:46.331Z,53.990234375
2022-11-05T12:12:46.444Z,55.130859375
2022-11-05T12:13:46.445Z,55.521484375
2022-11-05T12:14:46.769Z,56.28125
2022-11-05T12:15:46.389Z,55.919921875
2022-11-05T12:16:49.407Z,56.67578125
2022-11-05T12:17:46.411Z,57.845703125
2022-11-05T12:18:46.366Z,58.158203125
2022-11-05T12:19:46.472Z,58.7265625
2022-11-05T12:20:48.284Z,59.4443359375
2022-11-05T12:21:53.007Z,60.025390625
2022-11-05T12:22:46.329Z,60.767578125
2022-11-05T12:23:46.325Z,60.2431640625
2022-11-05T12:24:46.278Z,60.1865234375
2022-11-05T12:25:46.256Z,59.6103515625
2022-11-05T12:26:46.252Z,59.421875
2022-11-05T12:27:49.399Z,60.201171875
2022-11-05T12:29:12.236Z,60.841796875
2022-11-05T12:29:46.232Z,61.373046875
2022-11-05T12:30:46.282Z,60.8271484375
2022-11-05T12:31:46.251Z,60.6923828125
2022-11-05T12:32:46.330Z,60.2548828125
2022-11-05T12:33:46.257Z,59.71484375
2022-11-05T12:34:46.241Z,58.205078125
2022-11-05T12:35:48.845Z,57.197265625
2022-11-05T12:36:46.457Z,56.4990234375
2022-11-05T12:37:46.426Z,56.390625
2022-11-05T12:38:50.494Z,55.705078125
2022-11-05T12:39:46.358Z,55.4658203125
2022-11-05T12:40:46.396Z,54.8701171875
2022-11-05T12:41:46.300Z,54.3642578125
2022-11-05T12:42:46.352Z,54.9228515625
2022-11-05T12:43:46.261Z,54.8046875
2022-11-05T12:44:46.375Z,54.837890625
2022-11-05T12:45:46.383Z,55.353515625
2022-11-05T12:46:46.469Z,55.03125
2022-11-05T12:47:46.413Z,54.3310546875
2022-11-05T12:48:46.447Z,54.4130859375
2022-11-05T12:49:49.410Z,54.755859375
2022-11-05T12:50:46.341Z,55.1669921875
2022-11-05T12:51:46.468Z,55.73046875
2022-11-05T12:52:46.430Z,55.7607421875
2022-11-05T12:53:46.336Z,55.900390625
2022-11-05T12:54:46.357Z,55.796875
2022-11-05T12:55:48.712Z,56.0400390625
2022-11-05T12:56:46.254Z,55.6103515625
2022-11-05T12:57:46.239Z,55.6796875
2022-11-05T12:58:46.264Z,55.6845703125
2022-11-05T12:59:46.244Z,55.6201171875
2022-11-05T13:00:49.313Z,55.17578125
2022-11-05T13:01:46.800Z,54.3193359375
2022-11-05T13:02:46.314Z,54.923828125
2022-11-05T13:03:46.261Z,55.1298828125
2022-11-05T13:04:46.351Z,55.23828125